Time;durP1;ratioP1;P1;durP2;ratioP2;P2;SDS_P1;SDS_P2;PMS_P1;PMS_P2;Temp;Humidity;BMP_temperature;BMP_pressure;BME280_temperature;BME280_humidity;BME280_pressure;Samples;Min_cycle;Max_cycle;Signal;HPM_P1;HPM_P2
2022/11/08 00:01:30;;;;;;;;;;;;;;;12.00;87.79;100920.88;5038230;28;19966;-59
2022/11/08 00:03:55;;;;;;;;;;;;;;;11.98;87.74;100916.75;5045387;28;19917;-61
2022/11/08 00:14:32;;;;;;;;;;;;;;;11.91;87.99;100919.28;5043152;28;20336;-60
2022/11/08 00:16:57;;;;;;;;;;;;;;;11.88;88.15;100918.81;5045329;28;19924;-61
2022/11/08 00:19:22;;;;;;;;;;;;;;;11.86;87.99;100924.31;5043156;28;19959;-60
2022/11/08 00:21:48;;;;;;;;;;;;;;;11.84;87.97;100918.31;5048593;28;20372;-60
2022/11/08 00:24:13;;;;;;;;;;;;;;;11.80;88.10;100911.69;5048267;28;19924;-60
2022/11/08 00:26:38;;;;;;;;;;;;;;;11.78;88.12;100913.72;5053786;28;20291;-61
2022/11/08 00:29:03;;;;;;;;;;;;;;;11.77;88.17;100917.34;5046755;28;19928;-60
2022/11/08 00:31:28;;;;;;;;;;;;;;;11.74;88.28;100917.69;5048315;28;20015;-60
2022/11/08 00:33:54;;;;;;;;;;;;;;;11.70;88.19;100908.41;5047913;28;19931;-60
2022/11/08 00:36:19;;;;;;;;;;;;;;;11.67;87.92;100906.94;5049039;28;19987;-61
2022/11/08 00:38:44;;;;;;;;;;;;;;;11.65;88.00;100903.63;5047740;28;20167;-60
2022/11/08 00:41:10;;;;;;;;;;;;;;;11.62;87.75;100904.00;5046559;28;20547;-61
2022/11/08 00:43:35;;;;;;;;;;;;;;;11.60;88.20;100902.50;5046851;28;19920;-60
2022/11/08 00:46:00;;;;;;;;;;;;;;;11.58;88.15;100896.53;5046812;28;20008;-61
2022/11/08 00:48:25;;;;;;;;;;;;;;;11.56;88.21;100896.69;5043499;28;19936;-60
2022/11/08 00:50:51;;;;;;;;;;;;;;;11.54;87.98;100895.22;5050820;28;19953;-61
2022/11/08 00:53:16;;;;;;;;;;;;;;;11.54;88.37;100892.56;5043184;28;20009;-60
2022/11/08 00:55:41;;;;;;;;;;;;;;;11.50;88.17;100897.41;5042463;28;19921;-61
2022/11/08 00:58:06;;;;;;;;;;;;;;;11.48;88.47;100881.63;5044852;28;19994;-61
2022/11/08 01:00:31;;;;;;;;;;;;;;;11.46;88.03;100883.63;5056176;28;20015;-59
2022/11/08 01:05:40;;;;;;;;;;;;;;;11.42;88.06;100886.81;5037495;28;19931;-60
2022/11/08 01:08:05;;;;;;;;;;;;;;;11.40;88.40;100891.47;5047977;28;20328;-61
2022/11/08 01:10:31;;;;;;;;;;;;;;;11.36;88.42;100884.84;5044879;28;19916;-60
2022/11/08 01:12:56;;;;;;;;;;;;;;;11.35;88.10;100883.19;5044441;28;20373;-60
2022/11/08 01:15:21;;;;;;;;;;;;;;;11.35;88.06;100884.03;5047886;28;20296;-60
2022/11/08 01:17:46;;;;;;;;;;;;;;;11.34;88.46;100884.22;5048266;28;19917;-60
2022/11/08 01:20:11;;;;;;;;;;;;;;;11.32;88.21;100879.06;5046677;28;19917;-60
2022/11/08 01:22:36;;;;;;;;;;;;;;;11.33;88.30;100883.38;5048997;28;19923;-60
2022/11/08 01:25:02;;;;;;;;;;;;;;;11.32;88.31;100879.06;5046211;28;19921;-60
2022/11/08 01:27:27;;;;;;;;;;;;;;;11.30;88.90;100869.59;5041978;28;19962;-61
2022/11/08 01:29:52;;;;;;;;;;;;;;;11.31;88.84;100869.44;5041928;28;19924;-60
2022/11/08 01:32:17;;;;;;;;;;;;;;;11.32;88.88;100870.25;5050637;28;20007;-61
2022/11/08 01:34:42;;;;;;;;;;;;;;;11.31;88.82;100871.25;5045061;28;19921;-59
2022/11/08 01:37:08;;;;;;;;;;;;;;;11.30;88.83;100862.47;5043723;28;19968;-60
2022/11/08 01:39:33;;;;;;;;;;;;;;;11.28;88.71;100855.66;5046097;28;19917;-62
2022/11/08 01:41:58;;;;;;;;;;;;;;;11.26;89.16;100863.78;5048038;28;20399;-60
2022/11/08 01:44:23;;;;;;;;;;;;;;;11.24;88.93;100857.81;5050778;28;19917;-59
2022/11/08 01:46:49;;;;;;;;;;;;;;;11.24;89.30;100849.00;5050804;28;19931;-60
2022/11/08 01:49:17;;;;;;;;;;;;;;;11.22;88.82;100846.53;5051210;28;19920;-60
2022/11/08 01:52:05;;;;;;;;;;;;;;;11.22;88.88;100837.72;5051086;28;19924;-60
2022/11/08 01:54:49;;;;;;;;;;;;;;;11.21;89.09;100839.56;5047000;28;20300;-61
2022/11/08 01:57:18;;;;;;;;;;;;;;;11.20;89.09;100829.09;5055620;28;20062;-60
2022/11/08 01:59:46;;;;;;;;;;;;;;;11.21;89.30;100820.13;5052811;28;19924;-60
2022/11/08 02:02:12;;;;;;;;;;;;;;;11.20;89.30;100813.97;5047627;28;20410;-59
2022/11/08 02:04:40;;;;;;;;;;;;;;;11.20;89.21;100816.66;5050492;28;19952;-59
2022/11/08 02:07:06;;;;;;;;;;;;;;;11.20;89.26;100813.16;5049390;28;19924;-60
2022/11/08 02:09:33;;;;;;;;;;;;;;;11.18;89.23;100810.69;5044221;28;20456;-60
2022/11/08 02:11:58;;;;;;;;;;;;;;;11.18;89.62;100805.34;5048277;28;19932;-62
2022/11/08 02:14:23;;;;;;;;;;;;;;;11.16;89.91;100807.38;5051668;28;19989;-58
2022/11/08 02:16:48;;;;;;;;;;;;;;;11.16;89.62;100799.41;5046496;28;19921;-61
2022/11/08 02:19:18;;;;;;;;;;;;;;;11.15;89.68;100800.41;5050961;28;20066;-60
2022/11/08 02:22:04;;;;;;;;;;;;;;;11.15;89.63;100797.75;5051853;28;19946;-60
2022/11/08 02:24:29;;;;;;;;;;;;;;;11.14;89.79;100798.75;5046867;28;19939;-61
2022/11/08 02:26:55;;;;;;;;;;;;;;;11.14;89.74;100780.13;5050706;28;20397;-59
2022/11/08 02:29:30;;;;;;;;;;;;;;;11.12;90.21;100790.94;5051519;28;19978;-59
2022/11/08 02:31:56;;;;;;;;;;;;;;;11.13;89.99;100789.13;5050751;28;19952;-60
2022/11/08 02:34:27;;;;;;;;;;;;;;;11.13;90.00;100774.00;5050104;28;20435;-59
2022/11/08 02:36:52;;;;;;;;;;;;;;;11.14;90.15;100775.66;5051588;28;19921;-60
2022/11/08 02:39:17;;;;;;;;;;;;;;;11.15;90.17;100774.66;5055514;28;19932;-59
2022/11/08 02:41:43;;;;;;;;;;;;;;;11.18;89.73;100776.13;5053411;28;19917;-60
2022/11/08 02:44:08;;;;;;;;;;;;;;;11.20;89.94;100774.13;5046401;28;19963;-60
2022/11/08 02:46:33;;;;;;;;;;;;;;;11.21;89.89;100770.44;5051636;28;20591;-61
2022/11/08 02:48:58;;;;;;;;;;;;;;;11.20;89.95;100771.44;5057110;28;20303;-60
2022/11/08 02:51:23;;;;;;;;;;;;;;;11.22;90.12;100763.31;5052919;28;19924;-60
2022/11/08 02:53:48;;;;;;;;;;;;;;;11.21;89.80;100741.22;5048622;28;19975;-61
2022/11/08 02:56:14;;;;;;;;;;;;;;;11.22;89.90;100763.31;5048118;28;19984;-60
2022/11/08 02:58:39;;;;;;;;;;;;;;;11.21;90.03;100756.34;5043533;28;19921;-59
2022/11/08 03:01:04;;;;;;;;;;;;;;;11.21;89.72;100757.16;5045308;28;20568;-60
2022/11/08 03:03:29;;;;;;;;;;;;;;;11.21;89.66;100749.19;5056191;28;19913;-59
2022/11/08 03:05:55;;;;;;;;;;;;;;;11.20;89.44;100736.91;5046325;28;19927;-60
2022/11/08 03:08:20;;;;;;;;;;;;;;;11.20;89.60;100731.59;5054545;28;20383;-61
2022/11/08 03:10:45;;;;;;;;;;;;;;;11.21;89.42;100721.78;5052025;28;19931;-60
2022/11/08 03:13:10;;;;;;;;;;;;;;;11.20;89.35;100725.44;5048731;28;19917;-59
2022/11/08 03:15:35;;;;;;;;;;;;;;;11.19;89.29;100729.94;5050022;28;20011;-60
2022/11/08 03:18:01;;;;;;;;;;;;;;;11.18;89.04;100718.47;5050850;28;19921;-60
2022/11/08 03:20:26;;;;;;;;;;;;;;;11.18;89.17;100725.63;5046603;28;19979;-60
2022/11/08 03:22:59;;;;;;;;;;;;;;;11.17;89.18;100723.97;5057535;28;19956;-60
2022/11/08 03:25:24;;;;;;;;;;;;;;;11.15;89.00;100710.03;5048775;28;19916;-61
2022/11/08 03:27:49;;;;;;;;;;;;;;;11.13;89.04;100696.09;5047453;28;19917;-59
2022/11/08 03:30:15;;;;;;;;;;;;;;;11.11;89.01;100703.41;5042268;28;19963;-60
2022/11/08 03:32:40;;;;;;;;;;;;;;;11.03;89.05;100684.88;5048374;28;19917;-60
2022/11/08 03:35:05;;;;;;;;;;;;;;;11.06;88.83;100689.84;5046527;28;19920;-61
2022/11/08 03:37:30;;;;;;;;;;;;;;;11.07;88.63;100696.81;5050542;28;19940;-60
2022/11/08 03:39:56;;;;;;;;;;;;;;;11.04;88.89;100681.22;5044921;28;19967;-61
2022/11/08 03:42:21;;;;;;;;;;;;;;;11.03;88.88;100668.94;5051168;28;19955;-60
2022/11/08 03:44:46;;;;;;;;;;;;;;;11.01;88.62;100670.94;5047642;28;19987;-59
2022/11/08 03:47:11;;;;;;;;;;;;;;;10.97;88.97;100657.16;5050777;28;20399;-61
2022/11/08 03:49:36;;;;;;;;;;;;;;;10.97;88.88;100659.00;5042146;28;19952;-60
2022/11/08 03:52:02;;;;;;;;;;;;;;;10.97;88.61;100659.00;5048579;28;19919;-61
2022/11/08 03:54:27;;;;;;;;;;;;;;;10.95;88.82;100653.03;5045982;28;19967;-60
2022/11/08 03:56:52;;;;;;;;;;;;;;;10.93;88.65;100649.72;5045268;28;20308;-60
2022/11/08 03:59:17;;;;;;;;;;;;;;;10.92;88.62;100630.31;5054292;28;19963;-60
2022/11/08 04:01:42;;;;;;;;;;;;;;;10.93;88.78;100631.13;5052095;28;19921;-60
2022/11/08 04:04:08;;;;;;;;;;;;;;;10.89;88.82;100643.94;5046886;28;19928;-62
2022/11/08 04:06:33;;;;;;;;;;;;;;;10.87;88.71;100627.38;5045437;28;20011;-59
2022/11/08 04:08:58;;;;;;;;;;;;;;;10.84;88.71;100617.91;5049238;28;19917;-62
2022/11/08 04:16:52;;;;;;;;;;;;;;;10.82;88.54;100613.78;5053042;28;19939;-60
2022/11/08 04:22:01;;;;;;;;;;;;;;;10.83;88.86;100615.44;5056954;28;19978;-60
2022/11/08 04:24:26;;;;;;;;;;;;;;;10.86;88.48;100605.28;5048313;28;19925;-59
2022/11/08 04:26:51;;;;;;;;;;;;;;;10.84;88.46;100607.28;5049609;28;19917;-60
2022/11/08 04:29:16;;;;;;;;;;;;;;;10.84;88.47;100599.31;5043381;28;20376;-60
2022/11/08 04:31:42;;;;;;;;;;;;;;;10.87;88.71;100603.47;5048552;28;19925;-60
2022/11/08 04:34:07;;;;;;;;;;;;;;;10.88;88.65;100596.31;5037222;28;19916;-60
2022/11/08 04:36:32;;;;;;;;;;;;;;;10.90;88.31;100597.78;5049570;28;19917;-61
2022/11/08 04:38:57;;;;;;;;;;;;;;;10.92;88.40;100589.63;5048680;28;20406;-60
2022/11/08 04:41:23;;;;;;;;;;;;;;;10.91;88.37;100586.16;5043930;28;20452;-60
2022/11/08 04:43:49;;;;;;;;;;;;;;;10.93;88.07;100584.13;5045480;28;19917;-61
2022/11/08 04:46:16;;;;;;;;;;;;;;;10.94;87.87;100590.28;5048359;28;19962;-61
2022/11/08 04:48:42;;;;;;;;;;;;;;;10.93;88.09;100589.44;5041477;28;19916;-59
2022/11/08 04:51:09;;;;;;;;;;;;;;;10.92;87.96;100586.97;5048081;28;19920;-60
2022/11/08 04:53:35;;;;;;;;;;;;;;;10.92;87.79;100571.03;5048267;28;19924;-58
2022/11/08 04:56:04;;;;;;;;;;;;;;;10.91;87.78;100569.38;5047321;28;19916;-60
2022/11/08 04:58:37;;;;;;;;;;;;;;;10.87;87.63;100558.28;5043230;28;19940;-60
2022/11/08 05:01:03;;;;;;;;;;;;;;;10.85;87.56;100562.97;5043498;28;19924;-60
2022/11/08 05:03:28;;;;;;;;;;;;;;;10.82;87.61;100561.50;5046033;28;19955;-59
2022/11/08 05:05:53;;;;;;;;;;;;;;;10.81;87.25;100557.19;5043637;28;19916;-59
2022/11/08 05:08:19;;;;;;;;;;;;;;;10.79;87.32;100556.53;5046578;28;19916;-60
2022/11/08 05:10:44;;;;;;;;;;;;;;;10.79;87.32;100548.56;5047028;28;19919;-60
2022/11/08 05:13:09;;;;;;;;;;;;;;;10.79;87.32;100545.91;5048127;28;19917;-60
2022/11/08 05:15:34;;;;;;;;;;;;;;;10.76;87.35;100550.75;5045359;28;20035;-59
2022/11/08 05:17:59;;;;;;;;;;;;;;;10.75;87.28;100543.81;5049817;28;19917;-60
2022/11/08 05:23:24;;;;;;;;;;;;;;;10.72;87.01;100544.16;5038388;28;19966;-61
2022/11/08 05:25:49;;;;;;;;;;;;;;;10.70;87.04;100546.16;5042005;28;19917;-61
2022/11/08 05:28:15;;;;;;;;;;;;;;;10.67;86.73;100554.47;5041281;28;20027;-61
2022/11/08 05:30:40;;;;;;;;;;;;;;;10.67;86.80;100549.16;5050583;28;20569;-60
2022/11/08 05:33:05;;;;;;;;;;;;;;;10.65;87.06;100537.88;5047348;28;19923;-60
2022/11/08 05:35:32;;;;;;;;;;;;;;;10.64;86.87;100542.38;5053324;28;19913;-61
2022/11/08 05:37:57;;;;;;;;;;;;;;;10.63;86.68;100540.72;5050275;28;19935;-60
2022/11/08 05:40:22;;;;;;;;;;;;;;;10.65;86.87;100529.91;5054372;28;20454;-60
2022/11/08 05:42:47;;;;;;;;;;;;;;;10.64;86.59;100537.06;5055827;28;19924;-60
2022/11/08 05:45:13;;;;;;;;;;;;;;;10.64;86.96;100523.78;5052210;28;20408;-60
2022/11/08 05:47:38;;;;;;;;;;;;;;;10.64;86.89;100530.94;5047215;28;19913;-60
2022/11/08 05:50:03;;;;;;;;;;;;;;;10.63;86.52;100522.13;5044821;28;19925;-60
2022/11/08 05:52:28;;;;;;;;;;;;;;;10.61;86.36;100528.63;5052707;28;19916;-60
2022/11/08 05:54:54;;;;;;;;;;;;;;;10.62;86.00;100528.44;5051251;28;20416;-60
2022/11/08 05:57:19;;;;;;;;;;;;;;;10.57;86.36;100509.56;5043253;28;20407;-61
2022/11/08 05:59:44;;;;;;;;;;;;;;;10.63;86.20;100521.31;5048943;28;19912;-60
2022/11/08 06:02:09;;;;;;;;;;;;;;;10.61;86.22;100513.53;5039483;28;20353;-60
2022/11/08 06:04:34;;;;;;;;;;;;;;;10.63;85.92;100519.47;5048001;28;19912;-60
2022/11/08 06:06:59;;;;;;;;;;;;;;;10.64;85.85;100520.31;5049501;28;19986;-60
2022/11/08 06:09:24;;;;;;;;;;;;;;;10.63;85.63;100516.81;5044241;28;20027;-61
2022/11/08 06:11:50;;;;;;;;;;;;;;;10.64;85.64;100507.84;5045400;28;19973;-60
2022/11/08 06:14:15;;;;;;;;;;;;;;;10.65;85.77;100517.47;5048982;28;19956;-60
2022/11/08 06:16:40;;;;;;;;;;;;;;;10.66;86.06;100505.00;5047321;28;20011;-59
2022/11/08 06:19:05;;;;;;;;;;;;;;;10.64;85.69;100509.69;5047548;28;19917;-60
2022/11/08 06:21:30;;;;;;;;;;;;;;;10.64;85.73;100510.50;5048672;28;19972;-60
2022/11/08 06:23:56;;;;;;;;;;;;;;;10.63;85.51;100498.25;5055012;28;19927;-61
2022/11/08 06:26:22;;;;;;;;;;;;;;;10.61;85.41;100505.56;5041379;28;19917;-60
2022/11/08 06:28:47;;;;;;;;;;;;;;;10.62;85.37;100517.00;5050077;28;19960;-59
2022/11/08 06:31:12;;;;;;;;;;;;;;;10.60;85.24;100516.34;5054163;28;21980;-59
2022/11/08 06:33:37;;;;;;;;;;;;;;;10.60;85.39;100516.34;5058311;28;19916;-60
2022/11/08 06:36:03;;;;;;;;;;;;;;;10.61;85.04;100516.19;5055724;28;20380;-60
2022/11/08 06:38:28;;;;;;;;;;;;;;;10.62;85.07;100515.19;5046036;28;20412;-60
2022/11/08 06:40:53;;;;;;;;;;;;;;;10.60;84.74;100503.09;5045094;28;19917;-60
2022/11/08 06:43:18;;;;;;;;;;;;;;;10.62;85.03;100512.53;5047772;28;20130;-60
2022/11/08 06:45:44;;;;;;;;;;;;;;;10.60;84.57;100522.50;5045752;28;19916;-61
2022/11/08 06:48:09;;;;;;;;;;;;;;;10.60;84.57;100516.34;5047813;28;19917;-61
2022/11/08 06:50:35;;;;;;;;;;;;;;;10.61;84.40;100507.38;5042702;28;21891;-59
2022/11/08 06:53:01;;;;;;;;;;;;;;;10.59;84.22;100512.88;5041005;28;19924;-60
2022/11/08 06:55:27;;;;;;;;;;;;;;;10.59;84.35;100517.38;5043520;28;19940;-60
2022/11/08 06:57:53;;;;;;;;;;;;;;;10.61;84.28;100510.03;5041532;28;20629;-60
2022/11/08 07:00:18;;;;;;;;;;;;;;;10.57;84.05;100517.53;5045297;28;19921;-59
2022/11/08 07:02:44;;;;;;;;;;;;;;;10.55;84.28;100523.03;5049670;28;19920;-61
2022/11/08 07:05:09;;;;;;;;;;;;;;;10.53;83.80;100518.91;5046001;28;19913;-60
2022/11/08 07:07:35;;;;;;;;;;;;;;;10.54;84.00;100517.91;5051121;28;20400;-61
2022/11/08 07:10:00;;;;;;;;;;;;;;;10.53;83.90;100517.06;5048909;28;20007;-60
2022/11/08 07:12:26;;;;;;;;;;;;;;;10.54;83.72;100520.56;5049917;28;20003;-59
2022/11/08 07:14:51;;;;;;;;;;;;;;;10.54;83.71;100515.25;5047080;28;19963;-60
2022/11/08 07:17:16;;;;;;;;;;;;;;;10.54;83.75;100525.88;5050986;28;19952;-60
2022/11/08 07:19:41;;;;;;;;;;;;;;;10.55;83.67;100528.34;5046370;28;20004;-59
2022/11/08 07:22:06;;;;;;;;;;;;;;;10.57;83.66;100517.53;5046288;28;19975;-60
2022/11/08 07:24:32;;;;;;;;;;;;;;;10.60;83.85;100519.84;5044915;28;19917;-60
2022/11/08 07:26:57;;;;;;;;;;;;;;;10.61;83.59;100510.03;5048039;28;20558;-60
2022/11/08 07:29:22;;;;;;;;;;;;;;;10.64;83.44;100517.66;5047181;28;19921;-60
2022/11/08 07:31:47;;;;;;;;;;;;;;;10.66;83.42;100518.28;5041965;28;19917;-60
2022/11/08 07:34:12;;;;;;;;;;;;;;;10.68;83.34;100516.28;5048652;28;20419;-60
2022/11/08 07:36:38;;;;;;;;;;;;;;;10.68;83.35;100509.13;5048172;28;20007;-61
2022/11/08 07:39:03;;;;;;;;;;;;;;;10.70;83.33;100512.47;5047878;28;19964;-59
2022/11/08 07:41:28;;;;;;;;;;;;;;;10.74;83.13;100500.47;5056337;28;19921;-58
2022/11/08 07:43:53;;;;;;;;;;;;;;;10.78;83.50;100503.59;5049539;28;19913;-60
2022/11/08 07:46:18;;;;;;;;;;;;;;;10.81;83.19;100504.06;5042276;28;19959;-60
2022/11/08 07:48:44;;;;;;;;;;;;;;;10.86;83.58;100509.66;5049550;28;20361;-60
2022/11/08 07:51:09;;;;;;;;;;;;;;;10.88;83.31;100495.38;5049223;28;19913;-59
2022/11/08 07:53:34;;;;;;;;;;;;;;;10.91;83.26;100495.81;5055294;28;19951;-60
2022/11/08 07:55:59;;;;;;;;;;;;;;;10.94;82.88;100502.59;5053160;28;20353;-62
2022/11/08 07:58:24;;;;;;;;;;;;;;;10.95;82.66;100496.28;5050045;28;19920;-60
2022/11/08 08:00:49;;;;;;;;;;;;;;;10.98;82.60;100507.38;5051818;28;19920;-62
2022/11/08 08:03:15;;;;;;;;;;;;;;;11.01;82.59;100508.88;5049647;28;19917;-60
2022/11/08 08:05:41;;;;;;;;;;;;;;;11.04;82.77;100509.31;5043348;28;20002;-61
2022/11/08 08:08:07;;;;;;;;;;;;;;;11.06;82.63;100496.69;5049758;28;20478;-60
2022/11/08 08:10:32;;;;;;;;;;;;;;;11.08;82.55;100493.84;5047940;28;19955;-60
2022/11/08 08:12:58;;;;;;;;;;;;;;;11.11;82.53;100491.63;5047677;28;20288;-60
2022/11/08 08:15:23;;;;;;;;;;;;;;;11.12;81.97;100501.25;5049356;28;20273;-58
2022/11/08 08:17:49;;;;;;;;;;;;;;;11.16;81.89;100499.06;5048597;28;19912;-59
2022/11/08 08:20:14;;;;;;;;;;;;;;;11.20;81.98;100496.84;5048895;28;20043;-60
2022/11/08 08:22:46;;;;;;;;;;;;;;;11.21;81.75;100491.34;5050204;28;19917;-59
2022/11/08 08:25:11;;;;;;;;;;;;;;;11.23;81.10;100502.63;5041675;28;19969;-60
2022/11/08 08:27:37;;;;;;;;;;;;;;;11.26;80.90;100512.91;5048983;28;20047;-60
2022/11/08 08:30:02;;;;;;;;;;;;;;;11.28;80.07;100518.88;5051176;28;19912;-59
2022/11/08 08:32:27;;;;;;;;;;;;;;;11.32;79.77;100517.50;5049591;28;19917;-61
2022/11/08 08:34:52;;;;;;;;;;;;;;;11.37;79.20;100531.06;5047891;28;20450;-59
2022/11/08 08:37:17;;;;;;;;;;;;;;;11.44;78.68;100534.63;5050487;28;19916;-62
2022/11/08 08:39:43;;;;;;;;;;;;;;;11.54;78.18;100544.16;5048879;28;20528;-61
2022/11/08 08:42:08;;;;;;;;;;;;;;;11.64;77.50;100540.22;5050310;28;19917;-61
2022/11/08 08:44:33;;;;;;;;;;;;;;;11.75;76.73;100522.97;5049500;28;20363;-60
2022/11/08 08:46:58;;;;;;;;;;;;;;;11.85;76.92;100523.50;5052986;28;19920;-60
2022/11/08 08:49:23;;;;;;;;;;;;;;;11.93;76.02;100527.94;5055642;28;19960;-61
2022/11/08 08:51:48;;;;;;;;;;;;;;;12.01;75.66;100520.66;5049264;28;19920;-60
2022/11/08 08:54:14;;;;;;;;;;;;;;;12.08;75.24;100510.06;5045477;28;19921;-60
2022/11/08 08:56:39;;;;;;;;;;;;;;;12.14;74.94;100488.00;5049023;28;19913;-61
2022/11/08 08:59:04;;;;;;;;;;;;;;;12.19;74.62;100498.13;5048327;28;19990;-59
2022/11/08 09:01:30;;;;;;;;;;;;;;;12.25;74.30;100500.00;5047569;28;19928;-59
2022/11/08 09:03:57;;;;;;;;;;;;;;;12.30;73.87;100502.94;5049248;28;20296;-61
2022/11/08 09:06:22;;;;;;;;;;;;;;;12.37;73.82;100501.16;5049058;28;19913;-60
2022/11/08 09:08:47;;;;;;;;;;;;;;;12.40;73.43;100501.59;5047596;28;19916;-60
2022/11/08 09:11:12;;;;;;;;;;;;;;;12.44;73.91;100499.38;5047061;28;19975;-59
2022/11/08 09:13:37;;;;;;;;;;;;;;;12.47;73.92;100498.19;5051025;28;20410;-60
2022/11/08 09:16:03;;;;;;;;;;;;;;;12.50;73.31;100489.81;5049022;28;19921;-62
2022/11/08 09:18:28;;;;;;;;;;;;;;;12.54;73.04;100496.41;5050050;28;20129;-60
2022/11/08 09:20:57;;;;;;;;;;;;;;;12.60;72.99;100499.09;5048310;28;20435;-59
2022/11/08 09:23:22;;;;;;;;;;;;;;;12.65;72.77;100499.34;5048476;28;20392;-60
2022/11/08 09:25:48;;;;;;;;;;;;;;;12.69;72.93;100494.47;5048241;28;19921;-60
2022/11/08 09:28:13;;;;;;;;;;;;;;;12.73;72.82;100492.25;5048832;28;19995;-60
2022/11/08 09:30:38;;;;;;;;;;;;;;;12.74;72.64;100500.06;5043155;28;19931;-61
2022/11/08 09:33:04;;;;;;;;;;;;;;;12.78;73.25;100490.66;5047811;28;20435;-61
2022/11/08 09:35:29;;;;;;;;;;;;;;;12.77;72.48;100502.34;5048638;28;20477;-59
2022/11/08 09:37:54;;;;;;;;;;;;;;;12.81;72.60;100489.44;5050433;28;19955;-60
2022/11/08 09:40:30;;;;;;;;;;;;;;;12.83;71.91;100498.88;5047788;28;19913;-60
2022/11/08 09:43:02;;;;;;;;;;;;;;;12.88;71.53;100503.63;5045258;28;19917;-60
2022/11/08 09:45:28;;;;;;;;;;;;;;;12.94;71.71;100500.19;5045556;28;20400;-61
2022/11/08 09:48:01;;;;;;;;;;;;;;;13.01;71.61;100506.41;5043829;28;20005;-61
2022/11/08 09:50:26;;;;;;;;;;;;;;;13.05;70.97;100505.00;5044534;28;20066;-60
2022/11/08 09:53:10;;;;;;;;;;;;;;;13.07;70.92;100497.63;5047588;28;20392;-60
2022/11/08 09:55:38;;;;;;;;;;;;;;;13.10;70.89;100510.56;5046356;28;20337;-60
2022/11/08 09:58:14;;;;;;;;;;;;;;;13.11;70.95;100509.53;5043438;28;20366;-60
2022/11/08 10:00:40;;;;;;;;;;;;;;;13.14;71.23;100516.34;5044912;28;20007;-60
2022/11/08 10:03:09;;;;;;;;;;;;;;;13.16;70.62;100512.44;5049025;28;20012;-60
2022/11/08 10:05:39;;;;;;;;;;;;;;;13.21;70.35;100502.03;5046644;28;20291;-60
2022/11/08 10:08:20;;;;;;;;;;;;;;;13.26;70.16;100499.59;5046522;28;19917;-60
2022/11/08 10:11:11;;;;;;;;;;;;;;;13.36;70.55;100504.59;5049157;28;19917;-60
2022/11/08 10:13:41;;;;;;;;;;;;;;;13.44;70.61;100506.28;5046483;28;19916;-60
2022/11/08 10:16:13;;;;;;;;;;;;;;;13.49;69.82;100507.34;5051149;28;19925;-61
2022/11/08 10:18:56;;;;;;;;;;;;;;;13.53;70.11;100521.91;5051489;28;20031;-59
2022/11/08 10:21:45;;;;;;;;;;;;;;;13.58;69.28;100524.81;5048189;28;20438;-60
2022/11/08 10:24:19;;;;;;;;;;;;;;;13.64;68.99;100520.56;5049379;28;19931;-61
2022/11/08 10:26:45;;;;;;;;;;;;;;;13.65;68.49;100535.53;5051295;28;19917;-59
2022/11/08 10:29:18;;;;;;;;;;;;;;;13.66;68.73;100521.19;5048764;28;20093;-59
2022/11/08 10:31:45;;;;;;;;;;;;;;;13.68;68.88;100543.16;5052909;28;19913;-59
2022/11/08 10:34:19;;;;;;;;;;;;;;;13.67;68.42;100524.66;5050023;28;19916;-59
2022/11/08 10:36:45;;;;;;;;;;;;;;;13.67;68.71;100522.81;5048026;28;19937;-61
2022/11/08 10:39:10;;;;;;;;;;;;;;;13.68;68.20;100523.66;5047092;28;20012;-60
2022/11/08 10:41:54;;;;;;;;;;;;;;;13.70;68.15;100533.09;5047078;28;19921;-60
2022/11/08 10:44:23;;;;;;;;;;;;;;;13.71;68.09;100518.72;5046437;28;19917;-61
2022/11/08 10:46:54;;;;;;;;;;;;;;;13.73;68.06;100516.69;5048626;28;19928;-59
2022/11/08 10:49:26;;;;;;;;;;;;;;;13.76;68.01;100516.28;5050584;28;19923;-60
2022/11/08 10:51:53;;;;;;;;;;;;;;;13.80;68.08;100514.03;5052420;28;19912;-60
2022/11/08 10:54:37;;;;;;;;;;;;;;;13.83;67.69;100519.78;5051557;28;20288;-60
2022/11/08 10:57:02;;;;;;;;;;;;;;;13.86;68.01;100511.38;5052093;28;20269;-60
2022/11/08 10:59:28;;;;;;;;;;;;;;;13.85;67.71;100496.38;5055795;28;20264;-60
2022/11/08 11:01:54;;;;;;;;;;;;;;;13.87;67.50;100498.84;5050092;28;20002;-60
2022/11/08 11:04:26;;;;;;;;;;;;;;;13.86;67.14;100515.91;5058283;28;20491;-60
2022/11/08 11:06:52;;;;;;;;;;;;;;;13.85;67.34;100508.91;5048953;28;19913;-61
2022/11/08 11:09:18;;;;;;;;;;;;;;;13.85;67.42;100517.75;5057116;28;20003;-61
2022/11/08 11:11:44;;;;;;;;;;;;;;;13.83;67.61;100502.94;5049487;28;19923;-60
2022/11/08 11:14:17;;;;;;;;;;;;;;;13.81;67.24;100497.81;5050213;28;19913;-60
2022/11/08 11:17:01;;;;;;;;;;;;;;;13.85;67.44;100506.25;5048216;28;19929;-61
2022/11/08 11:19:26;;;;;;;;;;;;;;;13.83;67.13;100494.94;5046779;28;19913;-60
2022/11/08 11:22:03;;;;;;;;;;;;;;;13.83;67.60;100485.09;5050782;28;19924;-61
2022/11/08 11:24:29;;;;;;;;;;;;;;;13.86;67.99;100491.88;5048816;28;20023;-60
2022/11/08 11:26:54;;;;;;;;;;;;;;;13.85;68.42;100483.03;5045584;28;19939;-61
2022/11/08 11:29:25;;;;;;;;;;;;;;;13.85;67.95;100477.72;5042396;28;19921;-60
2022/11/08 11:31:51;;;;;;;;;;;;;;;13.89;67.53;100473.63;5046627;28;19982;-61
2022/11/08 11:34:16;;;;;;;;;;;;;;;13.94;67.19;100476.53;5046087;28;19916;-60
2022/11/08 11:36:46;;;;;;;;;;;;;;;14.00;67.16;100456.19;5048498;28;19923;-61
2022/11/08 11:39:15;;;;;;;;;;;;;;;14.10;67.34;100453.94;5040193;28;20335;-60
2022/11/08 11:41:48;;;;;;;;;;;;;;;14.29;67.34;100468.38;5045166;28;20006;-60
2022/11/08 11:44:17;;;;;;;;;;;;;;;14.44;66.79;100466.34;5045125;28;19920;-60
2022/11/08 11:47:01;;;;;;;;;;;;;;;14.54;66.84;100455.25;5046055;28;19975;-60
2022/11/08 11:49:28;;;;;;;;;;;;;;;14.59;66.38;100462.66;5042549;28;20449;-60
2022/11/08 11:51:53;;;;;;;;;;;;;;;14.58;65.69;100459.16;5049435;28;19921;-62
2022/11/08 11:54:22;;;;;;;;;;;;;;;14.60;66.17;100450.94;5049118;28;19924;-61
2022/11/08 11:57:08;;;;;;;;;;;;;;;14.60;66.06;100461.63;5047144;28;19924;-60
2022/11/08 11:59:43;;;;;;;;;;;;;;;14.56;66.05;100456.69;5018113;28;19920;-60
2022/11/08 12:02:26;;;;;;;;;;;;;;;14.59;66.24;100471.50;5049842;28;20011;-61
2022/11/08 12:05:10;;;;;;;;;;;;;;;14.71;66.46;100461.00;5046900;28;20000;-61
2022/11/08 12:07:40;;;;;;;;;;;;;;;14.69;65.83;100453.19;5048243;28;19916;-60
2022/11/08 12:10:05;;;;;;;;;;;;;;;14.67;65.70;100454.44;5045982;28;19974;-60
2022/11/08 12:12:49;;;;;;;;;;;;;;;14.64;66.04;100450.31;5045496;28;20388;-59
2022/11/08 12:15:24;;;;;;;;;;;;;;;14.62;65.69;100446.22;5047560;28;19917;-60
2022/11/08 12:18:12;;;;;;;;;;;;;;;14.61;65.88;100447.25;5048007;28;20434;-59
2022/11/08 12:20:42;;;;;;;;;;;;;;;14.61;66.38;100444.56;5049356;28;20003;-60
2022/11/08 12:23:10;;;;;;;;;;;;;;;14.60;65.80;100448.28;5043764;28;19929;-61
2022/11/08 12:25:35;;;;;;;;;;;;;;;14.57;65.82;100461.00;5047121;28;19924;-60
2022/11/08 12:28:24;;;;;;;;;;;;;;;14.56;66.26;100446.00;5046886;28;19916;-60
2022/11/08 12:30:53;;;;;;;;;;;;;;;14.57;66.46;100450.31;5012966;28;20347;-59
2022/11/08 12:33:19;;;;;;;;;;;;;;;14.54;66.23;100455.25;5045064;28;19936;-59
2022/11/08 12:35:53;;;;;;;;;;;;;;;14.53;66.22;100445.59;5042773;28;19917;-59
2022/11/08 12:38:28;;;;;;;;;;;;;;;14.53;66.55;100458.97;5046721;28;20567;-61
2022/11/08 12:41:02;;;;;;;;;;;;;;;14.51;66.28;100448.47;5044884;28;20309;-61
2022/11/08 12:43:49;;;;;;;;;;;;;;;14.54;66.85;100463.28;5046784;28;19925;-59
2022/11/08 12:46:17;;;;;;;;;;;;;;;14.54;66.55;100445.41;5043069;28;20312;-60
2022/11/08 12:48:42;;;;;;;;;;;;;;;14.55;66.43;100431.00;5044695;28;19919;-60
2022/11/08 12:51:26;;;;;;;;;;;;;;;14.59;66.60;100423.41;5044155;28;19917;-59
2022/11/08 12:53:59;;;;;;;;;;;;;;;14.73;66.77;100425.00;5049095;28;19917;-59
2022/11/08 12:56:33;;;;;;;;;;;;;;;14.88;66.20;100425.63;5047979;28;19980;-59
2022/11/08 12:58:59;;;;;;;;;;;;;;;15.00;65.96;100409.75;5047520;28;19913;-60